• Join FlightAware (Why Join?)
  • Login
  • US Flag 
10:15AM EDT


 

Airport Tracker/Info


-or-


 

Live Flight TrackerFlight Track Log ✈ QFA1043 ✈ 07-May-2013 ✈ YBRM / BME - YSSY / SYD

Flight Track Log - Related Links

Times and Time Zones

All times are in EDT time to prevent confusion due to time zone crossing. See the QFA1043 flight status page for this flight to view local times or setup timezone preferences in your user account.

Time Position Orientation Groundspeed Altitude Reporting Facility
EDT Latitude Longitude Course Direction KTS MPH feet Rate Location/Type
02:23AM -17.9496 122.2277 133° Southeast 34,000  Level Aus ATC (Calculated)
02:24AM -18.0108 122.2962 133° Southeast 34,000 60 Level Aus ATC (Calculated)
02:25AM -18.0681 122.3605 133° Southeast 34,000 60 Level Aus ATC (Calculated)
02:26AM -18.1287 122.4285 133° Southeast  Level FlightAware Approximate
02:26AM -18.1218 122.4208 133° Southeast 34,000  Level Aus ATC (Calculated)
02:27AM -18.1960 122.5042 133° Southeast  Level FlightAware Approximate
02:27AM -18.2225 122.5339 133° Southeast 34,000  Level Aus ATC (Calculated)
02:27AM -18.2225 122.5339 133° Southeast 34,000 60 Level Aus ATC (Calculated)
02:29AM -18.3374 122.6633 133° Southeast  Level FlightAware Approximate
02:29AM -18.3546 122.6826 133° Southeast 34,000  Level Aus ATC (Calculated)
02:31AM -18.4794 122.8235 133° Southeast  Level FlightAware Approximate
02:32AM -18.5654 122.9208 133° Southeast  Level FlightAware Approximate
02:32AM -18.6135 122.9752 133° Southeast 34,000  Level Aus ATC (Calculated)
02:33AM -18.6525 123.0194 133° Southeast 34,000 60 Level Aus ATC (Calculated)
02:33AM -18.6866 123.0581 133° Southeast 34,000 60 Level Aus ATC (Calculated)
02:34AM -18.7463 123.1259 133° Southeast 34,000 60 Level Aus ATC (Calculated)
02:35AM -18.8359 123.2277 133° Southeast 34,000 60 Level Aus ATC (Calculated)
02:36AM -18.8723 123.2691 133° Southeast  Level FlightAware Approximate
02:36AM -18.8807 123.2786 133° Southeast 34,000  Level Aus ATC (Calculated)
02:37AM -18.9254 123.3296 133° Southeast 39,000 60 Climbing Aus ATC (Calculated)
02:37AM -18.9881 123.4015 133° Southeast 39,000  Level Aus ATC (Calculated)
02:39AM -18.8912 123.2904 313° West  Level FlightAware Approximate
02:40AM -18.9767 123.3884 133° Southeast  Level FlightAware Approximate
02:40AM -19.3012 123.7618 133° Southeast 39,000  Level Aus ATC (Calculated)
02:41AM -18.8912 123.2904 313° West  Level FlightAware Approximate
02:42AM -19.3864 123.8835 133° Southeast  Level Estimated
02:43AM -19.4722 123.9815 133° Southeast  Level FlightAware Approximate
02:44AM -19.5580 124.0796 133° Southeast  Level FlightAware Approximate
02:45AM -19.6437 124.1778 133° Southeast  Level FlightAware Approximate
02:45AM -19.7384 124.2685 132° Southeast 39,000  Level Aus ATC (Calculated)
02:45AM -19.7384 124.2685 132° Southeast 39,000  Level Aus ATC (Calculated)
02:46AM -19.7294 124.2762 133° Southeast  Level FlightAware Approximate
02:47AM -19.8361 124.3824 132° Southeast  Level FlightAware Approximate
02:48AM -19.9210 124.4815 132° Southeast  Level FlightAware Approximate
02:49AM -20.0060 124.5808 132° Southeast  Level FlightAware Approximate
02:50AM -20.0908 124.6802 132° Southeast  Level FlightAware Approximate
02:50AM -20.1740 124.7779 132° Southeast 39,000  Level Aus ATC (Calculated)
02:51AM -20.1756 124.7797 132° Southeast  Level FlightAware Approximate
02:52AM -20.2715 124.8924 132° Southeast  Level FlightAware Approximate
02:53AM -20.3561 124.9922 132° Southeast  Level FlightAware Approximate
02:53AM -20.4223 125.0703 132° Southeast 39,000  Level Aus ATC (Calculated)
02:55AM -20.5669 125.2411 132° Southeast  Level FlightAware Approximate
02:55AM -20.6082 125.2901 132° Southeast 39,000  Level Aus ATC (Calculated)
02:56AM -20.6510 125.3409 132° Southeast  Level FlightAware Approximate
02:57AM -20.7063 125.4065 132° Southeast  Level FlightAware Approximate
02:57AM -20.7320 125.4370 132° Southeast 39,000  Level Aus ATC (Calculated)
02:58AM -20.8160 125.5369 132° Southeast  Level FlightAware Approximate
02:59AM -20.8999 125.6370 132° Southeast  Level FlightAware Approximate
03:00AM -20.9838 125.7371 132° Southeast  Level FlightAware Approximate
03:00AM -21.0264 125.7873 132° Southeast 39,000  Level Aus ATC (Calculated)
03:02AM -20.8792 125.6125 312° West  Level FlightAware Approximate
03:03AM -20.9520 125.7221 132° Southeast  Level Estimated
03:04AM -21.0365 125.8217 132° Southeast  Level FlightAware Approximate
03:05AM -21.1209 125.9214 132° Southeast  Level FlightAware Approximate
03:05AM -21.4614 126.3074 132° Southeast 39,000  Level Aus ATC (Calculated)
03:07AM -21.6093 126.4853 132° Southeast  Level FlightAware Approximate
03:08AM -21.6929 126.5862 132° Southeast  Level FlightAware Approximate
03:09AM -21.7765 126.6872 132° Southeast  Level FlightAware Approximate
03:10AM -21.8600 126.7883 132° Southeast  Level FlightAware Approximate
03:10AM -21.9309 126.8742 132° Southeast 39,000  Level Aus ATC (Calculated)
03:11AM -22.0029 126.9618 132° Southeast 39,000  Level Aus ATC (Calculated)
03:12AM -22.0862 127.0632 132° Southeast  Level FlightAware Approximate
03:12AM -22.0749 127.0494 132° Southeast 39,000  Level Aus ATC (Calculated)
03:13AM -22.1582 127.1509 132° Southeast  Level FlightAware Approximate
03:14AM -22.2414 127.2526 132° Southeast  Level FlightAware Approximate
03:15AM -22.3245 127.3544 131° Southeast  Level FlightAware Approximate
03:15AM -22.3624 127.4008 131° Southeast 39,000  Level Aus ATC (Calculated)
03:17AM -22.5105 127.5827 131° Southeast  Level FlightAware Approximate
03:18AM -22.5934 127.6848 131° Southeast  Level FlightAware Approximate
03:19AM -22.6763 127.7871 131° Southeast  Level FlightAware Approximate
03:20AM -22.7591 127.8895 131° Southeast  Level FlightAware Approximate
03:20AM -22.7922 127.9305 131° Southeast 39,000  Level Aus ATC (Calculated)
03:22AM -22.9397 128.1136 131° Southeast  Level FlightAware Approximate
03:22AM -23.0064 128.1967 131° Southeast 39,000  Level Aus ATC (Calculated)
03:22AM -23.0421 128.2411 131° Southeast 39,000  Level Aus ATC (Calculated)
03:23AM -23.0777 128.2855 131° Southeast 39,000  Level Aus ATC (Calculated)
03:25AM -23.2240 128.4684 131° Southeast  Level FlightAware Approximate
03:26AM -23.1413 128.3648 311° West  Level FlightAware Approximate
03:26AM -23.3434 128.6184 131° Southeast 39,000  Level Aus ATC (Calculated)
03:27AM -23.2240 128.4684 131° Southeast  Level FlightAware Approximate
03:28AM -23.2016 128.4402 311° West  Level FlightAware Approximate
03:29AM -23.2842 128.5439 131° Southeast  Level FlightAware Approximate
03:30AM -23.2016 128.4402 311° West  Level FlightAware Approximate
03:31AM -23.2842 128.5439 131° Southeast  Level FlightAware Approximate
03:31AM -23.7732 129.1622 131° Southeast 39,000  Level Aus ATC (Calculated)
03:33AM -23.8906 129.3611 131° Southeast  Level Estimated
03:34AM -23.9741 129.4646 131° Southeast  Level FlightAware Approximate
03:35AM -24.0574 129.5683 131° Southeast  Level FlightAware Approximate
03:36AM -24.1408 129.6720 131° Southeast  Level FlightAware Approximate
03:36AM -24.2011 129.7097 131° Southeast 39,000  Level Aus ATC (Calculated)
03:37AM -24.2240 129.7759 131° Southeast  Level FlightAware Approximate
03:38AM -24.3428 129.8924 130° Southeast  Level FlightAware Approximate
03:39AM -24.4244 129.9979 130° Southeast  Level FlightAware Approximate
03:40AM -24.5060 130.1036 130° Southeast  Level FlightAware Approximate
03:40AM -24.4210 129.9920 130° Southeast 475 547 40,000  Level FlightAware
03:40AM -24.4790 130.0670 130° Southeast 475 547 40,000  Level FlightAware
03:41AM -24.6270 130.2608 310° West 39,000  Descending Aus ATC (Calculated)
03:41AM -24.6270 130.2608 310° West 39,000 5,400 Level Aus ATC (Calculated)
03:41AM -24.5330 130.1370 130° Southeast 474 545 40,000 1,020 Climbing FlightAware
03:42AM -24.6000 130.2250 130° Southeast 471 542 40,000  Level FlightAware
03:42AM -24.6480 130.2870 130° Southeast 466 536 40,000  Level FlightAware
03:43AM -24.7100 130.3670 130° Southeast 463 533 40,000  Level FlightAware
03:44AM -24.7750 130.4540 129° Southeast 463 533 40,000  Level FlightAware
03:45AM -24.8710 130.5780 130° Southeast 469 540 40,000  Level FlightAware
03:46AM -24.9260 130.6500 130° Southeast 469 540 40,000  Level FlightAware
03:46AM -25.0508 130.8156 310° West 39,000  Descending Aus ATC (Calculated)
03:46AM -24.9760 130.7180 130° Southeast 469 540 40,000 780 Climbing FlightAware
03:47AM -25.0230 130.7810 129° Southeast 469 540 40,000  Level FlightAware
03:48AM -25.1010 130.8800 131° Southeast 470 541 40,000  Level FlightAware
03:48AM -25.1580 130.9570 129° Southeast 472 543 40,000  Level FlightAware
03:49AM -25.2476 131.1119 298° West 39,000  Descending Aus ATC (Calculated)
03:49AM -25.2040 131.0210 129° Southeast 472 543 40,000 660 Climbing FlightAware
03:50AM -25.2780 131.1640 120° Southeast 487 560 40,000  Level FlightAware
03:51AM -25.3310 131.2590 122° Southeast 489 563 40,000  Level FlightAware
03:52AM -25.3860 131.3570 122° Southeast 491 565 40,000  Level FlightAware
03:52AM -25.4340 131.4450 121° Southeast 491 565 40,000  Level FlightAware
03:53AM -25.4930 131.5500 122° Southeast 495 570 40,000  Level FlightAware
03:53AM -25.5887 131.7310 299° West 39,000  Descending Aus ATC (Calculated)
03:54AM -25.5570 131.6670 121° Southeast 497 572 40,000 840 Climbing FlightAware
03:54AM -25.6265 131.8000 297° West 39,000  Descending Aus ATC (Calculated)
03:55AM -25.6030 131.7500 121° Southeast 498 573 40,000 900 Climbing FlightAware
03:55AM -25.6510 131.8370 121° Southeast 498 573 40,000  Level FlightAware
03:56AM -25.6950 131.9160 122° Southeast 494 568 40,000  Level FlightAware
03:57AM -25.7750 132.0630 121° Southeast 494 568 40,000  Level FlightAware
03:58AM -25.8370 132.1770 121° Southeast 491 565 40,000  Level FlightAware
03:58AM -25.9272 132.3537 297° West 39,000  Descending Aus ATC (Calculated)
03:59AM -25.8900 132.2740 121° Southeast 488 562 40,000 1,200 Climbing FlightAware
03:59AM -25.9320 132.3520 121° Southeast 488 562 40,000  Level FlightAware
04:00AM -25.9840 132.4480 121° Southeast 488 562 40,000  Level FlightAware
04:01AM -26.0340 132.5390 121° Southeast 489 563 40,000  Level FlightAware
04:01AM -26.0740 132.6140 121° Southeast 490 564 40,000  Level FlightAware
04:02AM -26.1320 132.7200 121° Southeast 492 566 40,000  Level FlightAware
04:03AM -26.1960 132.8390 121° Southeast 492 566 40,000  Level FlightAware
04:03AM -26.2629 132.9798 293° West 39,000  Descending Aus ATC (Calculated)
04:04AM -26.2440 132.9300 121° Southeast 493 567 40,000 960 Climbing FlightAware
04:04AM -26.2990 133.0310 121° Southeast 494 568 40,000  Level FlightAware
04:05AM -26.3450 133.1180 121° Southeast 494 568 40,000  Level FlightAware
04:06AM -26.3860 133.1970 120° Southeast 494 568 40,000  Level FlightAware
04:06AM -26.4380 133.2930 121° Southeast 493 567 40,000  Level FlightAware
04:07AM -26.4900 133.3900 121° Southeast 489 563 40,000  Level FlightAware
04:08AM -26.5430 133.4900 121° Southeast 488 562 40,000  Level FlightAware
04:08AM -26.5959 133.6095 288° West 39,000  Descending Aus ATC (Calculated)
04:09AM -26.5840 133.5680 120° Southeast 488 562 40,000 1,080 Climbing FlightAware
04:09AM -26.6695 133.7499 294° West 39,000  Descending Aus ATC (Calculated)
04:09AM -26.6360 133.6660 120° Southeast 486 559 40,000 1,140 Climbing FlightAware
04:10AM -26.6695 133.7499 156° South 39,000  Descending Aus ATC (Calculated)
04:10AM -26.6840 133.7570 120° Southeast 483 556 40,000 840 Climbing FlightAware
04:11AM -26.7290 133.8420 120° Southeast 482 555 40,000  Level FlightAware
04:11AM -26.7820 133.9430 120° Southeast 480 552 40,000  Level FlightAware
04:12AM -26.8270 134.0290 120° Southeast 481 554 40,000  Level FlightAware
04:13AM -26.8710 134.1130 120° Southeast 485 558 40,000  Level FlightAware
04:13AM -26.9261 134.2429 254° West 39,000  Descending Aus ATC (Calculated)
04:14AM -26.9300 134.2270 120° Southeast 485 558 40,000 1,080 Climbing FlightAware
04:14AM -26.9680 134.3010 120° Southeast 485 558 40,000  Level FlightAware
04:15AM -27.0440 134.4450 121° Southeast 482 555 40,000  Level FlightAware
04:16AM -27.0890 134.5320 120° Southeast 482 555 40,000  Level FlightAware
04:17AM -27.1270 134.6060 120° Southeast 482 555 40,000  Level FlightAware
04:17AM -27.1640 134.6800 119° Southeast 482 555 40,000  Level FlightAware
04:18AM -27.2510 134.8470 120° Southeast 477 549 40,000  Level FlightAware
04:18AM -27.2896 134.9509 234° Southwest 39,000  Descending Aus ATC (Calculated)
04:19AM -27.2980 134.9380 120° Southeast 477 549 40,000 720 Climbing FlightAware
04:20AM -27.3350 135.0120 119° Southeast 476 548 40,000  Level FlightAware
04:20AM -27.3710 135.0860 119° Southeast 476 548 40,000  Level FlightAware
04:21AM -27.4160 135.1780 119° Southeast 476 548 40,000  Level FlightAware
04:22AM -27.4530 135.2520 119° Southeast 476 548 40,000  Level FlightAware
04:23AM -27.4890 135.3250 119° Southeast 476 548 40,000  Level FlightAware
04:23AM -27.5847 135.5307 297° West 39,000  Descending Aus ATC (Calculated)
04:23AM -27.5250 135.3990 119° Southeast 476 548 40,000 1,020 Climbing FlightAware
04:24AM -27.5610 135.4730 119° Southeast 476 548 40,000  Level FlightAware
04:25AM -27.5980 135.5470 119° Southeast 476 548 40,000  Level FlightAware
04:25AM -27.6430 135.6390 119° Southeast 476 548 40,000  Level FlightAware
04:26AM -27.6790 135.7130 119° Southeast 476 548 40,000  Level FlightAware
04:27AM -27.7160 135.7870 119° Southeast 476 548 40,000  Level FlightAware
04:27AM -27.7520 135.8610 119° Southeast 476 548 40,000  Level FlightAware
04:28AM -27.9250 136.1850 302° West 39,000  Descending Aus ATC (Calculated)
04:28AM -27.7880 135.9350 119° Southeast 476 548 40,000 960 Climbing FlightAware
04:29AM -27.8340 136.0280 119° Southeast 476 548 40,000  Level FlightAware
04:30AM -27.8700 136.1020 119° Southeast 476 548 40,000  Level FlightAware
04:30AM -27.9060 136.1760 119° Southeast 476 548 40,000  Level FlightAware
04:31AM -28.0940 136.5136 303° West 39,000  Descending Aus ATC (Calculated)
04:31AM -27.9430 136.2500 120° Southeast 476 548 40,000 900 Climbing FlightAware
04:32AM -27.9790 136.3240 120° Southeast 476 548 40,000  Level FlightAware
04:32AM -28.0240 136.4170 119° Southeast 476 548 40,000  Level FlightAware
04:33AM -28.0610 136.4910 120° Southeast 476 548 40,000  Level FlightAware
04:33AM -28.2670 136.8555 304° West 39,000  Descending Aus ATC (Calculated)
04:33AM -28.2670 136.8555 304° West 39,000 2,220 Level Aus ATC (Calculated)
04:34AM -28.0970 136.5660 120° Southeast 476 548 40,000 60 Climbing FlightAware
04:36AM -28.2516 136.8242 119° Southeast  Level FlightAware Approximate
04:36AM -28.4071 137.1402 119° Southeast 39,000  Level Aus ATC (Calculated)
04:36AM -28.4537 137.2352 119° Southeast 39,000 60 Level Aus ATC (Calculated)
04:38AM -28.5275 137.3864 119° Southeast  Level FlightAware Approximate
04:38AM -28.5466 137.4255 119° Southeast 39,000  Level Aus ATC (Calculated)
04:40AM -28.6233 137.5833 119° Southeast  Level FlightAware Approximate
04:40AM -28.6855 137.7117 119° Southeast 39,000  Level Aus ATC (Calculated)
04:41AM -28.6845 137.7096 119° Southeast  Level FlightAware Approximate
04:42AM -28.7588 137.8635 119° Southeast  Level FlightAware Approximate
04:43AM -28.8198 137.9902 119° Southeast  Level FlightAware Approximate
04:43AM -28.8698 138.0943 119° Southeast 39,000  Level Aus ATC (Calculated)
04:44AM -28.8806 138.1170 119° Southeast  Level FlightAware Approximate
04:45AM -28.9517 138.2658 119° Southeast  Level FlightAware Approximate
04:46AM -29.0123 138.3929 119° Southeast  Level FlightAware Approximate
04:47AM -29.0728 138.5202 119° Southeast  Level FlightAware Approximate
04:48AM -29.1331 138.6476 118° Southeast  Level FlightAware Approximate
04:48AM -29.1441 138.6709 118° Southeast 39,000  Level Aus ATC (Calculated)
04:50AM -29.2253 138.8432 118° Southeast  Level FlightAware Approximate
04:51AM -29.2854 138.9710 118° Southeast  Level FlightAware Approximate
04:52AM -29.3453 139.0990 118° Southeast  Level FlightAware Approximate
04:53AM -29.4051 139.2271 118° Southeast  Level FlightAware Approximate
04:53AM -29.4159 139.2505 118° Southeast 39,000  Level Aus ATC (Calculated)
04:54AM -29.4600 139.3440 118° Southeast 446 513 41,000 1,680 Climbing FlightAware
04:54AM -29.5000 139.4320 118° Southeast 446 513 41,000  Level FlightAware
04:55AM -29.5560 139.5510 118° Southeast 449 517 41,000  Level FlightAware
04:56AM -29.5940 139.6340 118° Southeast 453 521 41,000  Level FlightAware
04:57AM -29.6460 139.7470 118° Southeast 454 522 41,000  Level FlightAware
04:57AM -29.6852 139.8331 117° Southeast 39,000  Descending Aus ATC (Calculated)
04:58AM -29.7000 139.8660 118° Southeast 456 525 41,000 2,220 Climbing FlightAware
04:58AM -29.7320 139.9390 117° Southeast 456 525 41,000  Level FlightAware
04:59AM -29.7650 140.0130 117° Southeast 456 525 41,000  Level FlightAware
05:00AM -29.7970 140.0870 117° Southeast 456 525 41,000  Level FlightAware
05:00AM -29.8300 140.1600 118° Southeast 456 525 41,000  Level FlightAware
05:01AM -29.8620 140.2340 117° Southeast 456 525 41,000  Level FlightAware
05:02AM -29.9490 140.4130 119° Southeast 459 528 41,000  Level FlightAware
05:02AM -30.0065 140.5400 297° West 39,000  Descending Aus ATC (Calculated)
05:02AM -29.9880 140.4980 118° Southeast 460 529 41,000 2,400 Climbing FlightAware
05:03AM -30.0280 140.5870 118° Southeast 460 529 41,000  Level FlightAware
05:04AM -30.0700 140.6820 117° Southeast 458 527 41,000  Level FlightAware
05:04AM -30.1010 140.7500 118° Southeast 458 527 41,000  Level FlightAware
05:05AM -30.1440 140.8470 117° Southeast 456 525 41,000  Level FlightAware
05:06AM -30.1760 140.9210 117° Southeast 456 525 41,000  Level FlightAware
05:06AM -30.2371 141.0553 298° West 39,000  Descending Aus ATC (Calculated)
05:07AM -30.2090 140.9950 117° Southeast 456 525 41,000 1,500 Climbing FlightAware
05:07AM -30.2500 141.0870 117° Southeast 456 525 41,000  Level FlightAware
05:08AM -30.2820 141.1610 117° Southeast 456 525 41,000  Level FlightAware
05:09AM -30.3150 141.2350 117° Southeast 456 525 41,000  Level FlightAware
05:09AM -30.3556 141.3229 306° West 39,000  Descending Aus ATC (Calculated)
05:09AM -30.3470 141.3090 117° Southeast 456 525 41,000 1,680 Climbing FlightAware
05:10AM -30.3800 141.3830 117° Southeast 456 525 41,000  Level FlightAware
05:11AM -30.4210 141.4760 117° Southeast 456 525 41,000  Level FlightAware
05:12AM -30.4530 141.5500 117° Southeast 456 525 41,000  Level FlightAware
05:12AM -30.4860 141.6240 117° Southeast 456 525 41,000  Level FlightAware
05:13AM -30.5180 141.6990 116° Southeast 456 525 41,000  Level FlightAware
05:14AM -30.5510 141.7730 117° Southeast 456 525 41,000  Level FlightAware
05:14AM -30.6396 141.9721 298° West 39,000  Descending Aus ATC (Calculated)
05:14AM -30.5910 141.8660 117° Southeast 456 525 41,000 60 Climbing FlightAware
05:17AM -30.7183 142.1580 117° Southeast  Level FlightAware Approximate
05:18AM -30.7778 142.2952 117° Southeast  Level FlightAware Approximate
05:19AM -30.8371 142.4325 117° Southeast  Level FlightAware Approximate
05:19AM -30.9204 142.6251 116° Southeast 39,000  Level Aus ATC (Calculated)
05:19AM -30.9204 142.6251 116° Southeast 39,000 60 Level Aus ATC (Calculated)
05:20AM -31.0000 142.8124 116° Southeast 39,000 60 Level Aus ATC (Calculated)
05:21AM -31.0074 142.8297 116° Southeast  Level FlightAware Approximate
05:22AM -30.9999 142.6225 270° West  Level FlightAware Approximate
05:22AM -31.0983 143.0450 116° Southeast 41,000  Level Aus ATC (Calculated)
05:24AM -31.0715 142.9814 116° Southeast  Level FlightAware Approximate
05:25AM -31.1298 143.1198 116° Southeast  Level FlightAware Approximate
05:25AM -31.2612 143.4337 116° Southeast 41,000  Level Aus ATC (Calculated)
05:26AM -31.1879 143.2583 116° Southeast  Level FlightAware Approximate
05:27AM -31.3382 143.6190 116° Southeast  Level FlightAware Approximate
05:28AM -31.3958 143.7581 116° Southeast  Level FlightAware Approximate
05:29AM -31.4533 143.8974 116° Southeast  Level FlightAware Approximate
05:29AM -31.4551 143.9019 116° Southeast 41,000  Level Aus ATC (Calculated)
05:29AM -31.4551 143.9019 116° Southeast 41,000  Level Aus ATC (Calculated)
05:30AM -31.5194 144.0584 116° Southeast 41,000  Level Aus ATC (Calculated)
05:31AM -31.5667 144.1740 116° Southeast  Level FlightAware Approximate
05:32AM -31.5955 144.2447 116° Southeast  Level FlightAware Approximate
05:33AM -31.6524 144.3846 116° Southeast  Level FlightAware Approximate
05:34AM -31.7092 144.5246 116° Southeast  Level FlightAware Approximate
05:35AM -31.7658 144.6649 115° Southeast  Level FlightAware Approximate
05:35AM -31.8062 144.7653 115° Southeast 41,000  Level Aus ATC (Calculated)
05:37AM -31.8822 144.9551 115° Southeast  Level FlightAware Approximate
05:39AM -31.9943 145.2368 115° Southeast  Level FlightAware Approximate
05:39AM -32.0000 145.2510 115° Southeast 451 519 41,000  Level FlightAware
05:39AM -32.0402 145.3457 115° Southeast 450 518 41,000  Level Aus ATC (RADAR)
05:40AM -32.0490 145.3730 115° Southeast 452 520 41,000  Level FlightAware
05:40AM -32.0850 145.4660 115° Southeast 453 521 41,000  Level FlightAware
05:40AM -32.0961 145.4768 115° Southeast 448 516 41,000  Level Aus ATC (RADAR)
05:41AM -32.1300 145.5800 115° Southeast 456 525 41,000  Level FlightAware
05:42AM -32.1630 145.6611 115° Southeast 457 526 41,000  Level Aus ATC (RADAR)
05:42AM -32.1660 145.6740 115° Southeast 458 527 41,000  Level FlightAware
05:42AM -32.1893 145.7455 115° Southeast 461 531 41,000  Level Aus ATC (RADAR)
05:42AM -32.2010 145.7620 115° Southeast 458 527 41,000  Level FlightAware
05:43AM -32.2210 145.8243 115° Southeast 459 528 41,000  Level Aus ATC (RADAR)
05:43AM -32.2410 145.8640 115° Southeast 459 528 41,000  Level FlightAware
05:44AM -32.2770 145.9570 115° Southeast 460 529 41,000  Level FlightAware
05:44AM -32.2945 146.0031 115° Southeast 453 521 41,000  Level Aus ATC (RADAR)
05:45AM -32.3150 146.0580 115° Southeast 458 527 41,000  Level FlightAware
05:45AM -32.3520 146.1512 115° Southeast 456 525 41,000  Level Aus ATC (RADAR)
05:45AM -32.3520 146.1520 115° Southeast 456 525 41,000  Level FlightAware
05:46AM -32.3871 146.2426 115° Southeast 456 525 41,000  Level Aus ATC (RADAR)
05:46AM -32.3860 146.2420 115° Southeast 460 529 41,000  Level FlightAware
05:46AM -32.4184 146.3220 115° Southeast 454 522 41,000  Level Aus ATC (RADAR)
05:47AM -32.4260 146.3460 115° Southeast 455 524 41,000  Level FlightAware
05:47AM -32.4572 146.4250 115° Southeast 454 522 41,000  Level Aus ATC (RADAR)
05:47AM -32.4610 146.4380 115° Southeast 455 524 41,000  Level FlightAware
05:48AM -32.4796 146.4817 115° Southeast 454 522 41,000  Level Aus ATC (RADAR)
05:48AM -32.5000 146.5380 115° Southeast 453 521 41,000  Level FlightAware
05:49AM -32.5350 146.6310 114° Southeast 452 520 41,000  Level FlightAware
05:49AM -32.5568 146.6857 114° Southeast 446 513 41,000  Level Aus ATC (RADAR)
05:49AM -32.5680 146.7190 114° Southeast 451 519 41,000 360 Level FlightAware
05:50AM -32.6079 146.8221 114° Southeast 448 516 41,400  Climbing Aus ATC (RADAR)
05:50AM -32.6080 146.8240 114° Southeast 450 518 41,000  Descending FlightAware
05:51AM -32.6423 146.9123 114° Southeast 446 513 41,400  Climbing Aus ATC (RADAR)
05:51AM -32.6420 146.9140 114° Southeast 449 517 41,000  Descending FlightAware
05:51AM -32.6719 146.9917 114° Southeast 447 514 41,400  Climbing Aus ATC (RADAR)
05:52AM -32.6800 147.0140 114° Southeast 448 516 41,000  Descending FlightAware
05:52AM -32.7016 147.0707 114° Southeast 445 512 41,400  Climbing Aus ATC (RADAR)
05:52AM -32.7140 147.1060 114° Southeast 449 517 41,000  Descending FlightAware
05:53AM -32.7311 147.1502 114° Southeast 446 513 41,400  Climbing Aus ATC (RADAR)
05:53AM -32.7530 147.2080 114° Southeast 451 519 41,000 -360 Descending FlightAware
05:54AM -32.7870 147.3000 114° Southeast 452 520 41,000 360 Level FlightAware
05:54AM -32.8075 147.3551 114° Southeast 448 516 41,400  Climbing Aus ATC (RADAR)
05:54AM -32.8200 147.3910 114° Southeast 453 521 41,000  Descending FlightAware
05:55AM -32.8499 147.4696 114° Southeast 450 518 41,400  Climbing Aus ATC (RADAR)
05:55AM -32.8600 147.4940 114° Southeast 455 524 41,000  Descending FlightAware
05:55AM -32.8859 147.5454 114° Southeast 449 517 41,400  Climbing Aus ATC (RADAR)
05:56AM -32.9030 147.5790 114° Southeast 451 519 41,000  Descending FlightAware
05:56AM -32.9291 147.6313 114° Southeast 451 519 41,400  Climbing Aus ATC (RADAR)
05:56AM -32.9460 147.6640 114° Southeast 452 520 41,000  Descending FlightAware
05:57AM -32.9668 147.7066 114° Southeast 450 518 41,400  Climbing Aus ATC (RADAR)
05:57AM -32.9950 147.7630 114° Southeast 453 521 41,000  Descending FlightAware
05:58AM -33.0424 147.8575 114° Southeast 451 519 41,400  Climbing Aus ATC (RADAR)
05:58AM -33.0430 147.8590 114° Southeast 453 521 41,000 -240 Descending FlightAware
05:58AM -33.0749 147.9225 114° Southeast 451 519 41,300  Climbing Aus ATC (RADAR)
05:59AM -33.0870 147.9470 114° Southeast 453 521 41,000 -360 Descending FlightAware
05:59AM -33.1290 148.0320 121° Southeast 452 520 41,000 300 Level FlightAware
06:00AM -33.1712 148.1167 121° Southeast 449 517 41,400  Climbing Aus ATC (RADAR)
06:00AM -33.1770 148.1290 121° Southeast 451 519 41,000  Descending FlightAware
06:00AM -33.2086 148.1917 121° Southeast 447 514 41,400  Climbing Aus ATC (RADAR)
06:01AM -33.2210 148.2170 121° Southeast 450 518 41,000  Descending FlightAware
06:01AM -33.2511 148.2778 121° Southeast 446 513 41,400  Climbing Aus ATC (RADAR)
06:01AM -33.2620 148.3010 121° Southeast 453 521 41,000  Descending FlightAware
06:02AM -33.2881 148.3534 121° Southeast 447 514 41,400  Climbing Aus ATC (RADAR)
06:02AM -33.3110 148.4000 121° Southeast 452 520 41,000 -420 Descending FlightAware
06:03AM -33.3530 148.4850 121° Southeast 451 519 41,000 300 Level FlightAware
06:03AM -33.3988 148.5792 121° Southeast 444 511 41,400  Climbing Aus ATC (RADAR)
06:04AM -33.4010 148.5840 121° Southeast 452 520 41,000 -540 Descending FlightAware
06:04AM -33.4430 148.6710 120° Southeast 454 522 41,000 300 Level FlightAware
06:05AM -33.4833 148.7519 120° Southeast 446 513 41,400  Climbing Aus ATC (RADAR)
06:05AM -33.4860 148.7570 120° Southeast 454 522 41,000  Descending FlightAware
06:05AM -33.5202 148.8279 120° Southeast 447 514 41,400  Climbing Aus ATC (RADAR)
06:06AM -33.5340 148.8560 120° Southeast 455 524 41,000  Descending FlightAware
06:06AM -33.5680 148.9261 120° Southeast 449 517 41,400  Climbing Aus ATC (RADAR)
06:06AM -33.5760 148.9430 120° Southeast 456 525 41,000  Descending FlightAware
06:07AM -33.6045 149.0026 120° Southeast 448 516 41,400  Climbing Aus ATC (RADAR)
06:07AM -33.6240 149.0420 120° Southeast 456 525 41,000 -420 Descending FlightAware
06:08AM -33.6650 149.1280 120° Southeast 456 525 41,000 300 Level FlightAware
06:08AM -33.7098 149.2206 120° Southeast 446 513 41,400  Climbing Aus ATC (RADAR)
06:08AM -33.7090 149.2180 120° Southeast 452 520 41,000 -1,980 Descending FlightAware
06:09AM -33.7540 149.3140 119° Southeast 433 498 39,900 -1,740 Descending FlightAware
06:10AM -33.7856 149.3790 119° Southeast 427 491 38,900 -2,700 Descending Aus ATC (RADAR)
06:10AM -33.7950 149.3980 119° Southeast 441 507 38,100 -3,000 Descending FlightAware
06:10AM -33.8300 149.4730 119° Southeast 443 510 36,600 -2,940 Descending FlightAware
06:11AM -33.8810 149.5800 120° Southeast 456 525 34,000 -3,240 Descending FlightAware
06:12AM -33.9280 149.6780 120° Southeast 461 531 31,500 -3,240 Descending FlightAware
06:13AM -33.9681 149.7624 120° Southeast 447 514 29,800 -3,000 Descending Aus ATC (RADAR)
06:13AM -33.9790 149.7860 120° Southeast 459 528 29,000 -2,820 Descending FlightAware
06:13AM -34.0130 149.8580 120° Southeast 450 518 27,400 -3,000 Descending FlightAware
06:14AM -34.0560 149.9830 113° Southeast 441 507 24,800 -2,760 Descending FlightAware
06:15AM -34.0631 150.0713 113° Southeast 420 483 23,600 -2,700 Descending Aus ATC (RADAR)
06:15AM -34.0640 150.0910 113° Southeast 429 494 22,800 -3,000 Descending FlightAware
06:16AM -34.0690 150.1850 94° East 419 482 21,000 -2,580 Descending FlightAware
06:16AM -34.0740 150.2760 94° East 407 468 19,400 -2,520 Descending FlightAware
06:17AM -34.0790 150.3760 93° East 393 452 17,500 -2,520 Descending FlightAware
06:18AM -34.0840 150.4720 94° East 379 436 15,700 -2,220 Descending FlightAware
06:18AM -34.0877 150.5385 94° East 358 412 14,900 -2,400 Descending Aus ATC (RADAR)
06:18AM -34.0880 150.5470 94° East 369 425 14,300 -2,280 Descending FlightAware
06:19AM -34.0912 150.6096 94° East 348 400 13,600 -2,160 Descending Aus ATC (RADAR)
06:19AM -34.0920 150.6340 94° East 357 411 12,700 -2,700 Descending FlightAware
06:20AM -34.0960 150.7110 94° East 349 402 11,000 -2,880 Descending FlightAware
06:20AM -34.1000 150.7750 94° East 353 406 9,400 -3,120 Descending FlightAware
06:21AM -34.1010 150.8040 92° East 353 406 8,700 -1,680 Descending FlightAware
06:21AM -34.0930 150.8470 77° East 337 388 8,300 -900 Descending FlightAware
06:21AM -34.0700 150.9000 62° Northeast 330 380 7,900 -300 Descending FlightAware
06:22AM -34.0564 150.9333 62° Northeast 318 366 8,100 -840 Climbing Aus ATC (RADAR)
06:22AM -34.0510 150.9450 62° Northeast 322 371 7,500 -1,740 Descending FlightAware
06:22AM -34.0360 150.9670 51° Northeast 309 356 7,300 -840 Descending FlightAware
06:22AM -34.0220 150.9760 28° Northeast 300 345 7,100 -720 Descending FlightAware
06:23AM -34.0050 150.9800 11° North 290 334 7,000 -720 Descending FlightAware
06:23AM -33.9880 150.9800 360° North 282 325 6,800 -840 Descending FlightAware
06:23AM -33.9490 150.9810 North 271 312 6,400 -960 Descending FlightAware
06:24AM -33.9290 150.9820 North 269 310 6,100 -540 Descending FlightAware
06:24AM -33.8954 150.9830 North 268 308 6,100 -960 Level Aus ATC (RADAR)
06:24AM -33.8960 150.9830 North 267 307 5,700 -2,160 Descending FlightAware
06:24AM -33.8690 150.9840 North 265 305 5,100 -1,200 Descending FlightAware
06:25AM -33.8290 150.9860 North 253 291 4,600 -900 Descending FlightAware
06:25AM -33.7950 150.9880 North 244 281 4,200 -900 Descending FlightAware
06:26AM -33.7760 150.9950 17° North 239 275 3,800 -1,200 Descending FlightAware
06:26AM -33.7620 151.0180 54° Northeast 232 267 3,400 -1,200 Descending FlightAware
06:26AM -33.7540 151.0370 63° Northeast 226 260 3,200 -720 Descending FlightAware
06:27AM -33.7410 151.0700 65° Northeast 213 245 2,900 -600 Descending FlightAware
06:27AM -33.7520 151.1000 114° Southeast 198 228 2,600 -480 Descending FlightAware
06:28AM -33.7690 151.1190 137° Southeast 181 208 2,500 -360 Descending FlightAware
06:28AM -33.7760 151.1260 140° Southeast 177 204 2,400 -840 Descending FlightAware
06:28AM -33.7900 151.1350 152° Southeast 170 196 2,100  Descending FlightAware
06:29AM -33.8045 151.1392 152° Southeast 178 205 2,400 -480 Climbing Aus ATC (RADAR)
06:29AM -33.8080 151.1400 152° Southeast 164 189 1,900 -1,440 Descending FlightAware
06:29AM -33.8320 151.1460 168° South 162 186 1,500 -720 Descending FlightAware
06:29AM -33.8420 151.1490 166° South 151 174 1,400 -780 Descending FlightAware
06:30AM -33.8600 151.1540 167° South 149 171 1,000 -960 Descending FlightAware
06:30AM -33.8740 151.1570 170° South 137 158 700 -300 Descending FlightAware
06:31AM -33.8919 151.1618 170° South 137 158 800 -600 Climbing Aus ATC (RADAR)
06:31AM -33.9010 151.1640 170° South 134 154 200 -1,500 Descending FlightAware
06:31AM -33.9110 151.1670 166° South 134 154 -840 Descending FlightAware
06:32AM -33.9290 151.1710 170° South 135 155  Level FlightAware
06:32AM -33.9420 151.1750 166° South 51 59  Level FlightAware
06:33AM -33.9440 151.1760 157° South 13 15  Level FlightAware
06:33AM -33.9430 151.1770 40° Northeast 12 14  Level FlightAware
06:33AM -33.9420 151.1770 360° North 14 16  Level FlightAware
06:34AM -33.9410 151.1770 360° North 19 22  Level FlightAware
06:34AM -33.9380 151.1760 345° North 20 23  Level FlightAware
06:35AM -33.9360 151.1750 337° Northwest 21 24  Level FlightAware